Time;durP1;ratioP1;P1;durP2;ratioP2;P2;SDS_P1;SDS_P2;PMS_P1;PMS_P2;Temp;Humidity;BMP_temperature;BMP_pressure;BME280_temperature;BME280_humidity;BME280_pressure;Samples;Min_cycle;Max_cycle;Signal;HPM_P1;HPM_P2
2022/05/05 00:01:14;;;;;;;7.13;5.85;;;;;;;11.35;68.78;102003.91;5074425;28;20129;-35
2022/05/05 00:03:39;;;;;;;7.05;5.13;;;;;;;11.40;68.00;102009.53;5075173;28;20020;-35
2022/05/05 00:06:05;;;;;;;6.70;4.97;;;;;;;11.42;67.64;102004.75;5074656;28;20039;-35
2022/05/05 00:08:30;;;;;;;7.00;5.35;;;;;;;11.35;67.29;101996.63;5074345;28;20020;-35
2022/05/05 00:16:23;;;;;;;6.60;5.32;;;;;;;11.46;66.83;102003.28;5074169;28;20194;-35
2022/05/05 00:18:49;;;;;;;6.63;5.37;;;;;;;11.45;67.45;101998.06;5074036;28;20119;-35
2022/05/05 00:21:15;;;;;;;6.30;5.30;;;;;;;11.42;67.41;101999.34;5074759;28;20072;-35
2022/05/05 00:23:40;;;;;;;7.85;5.35;;;;;;;11.48;67.40;102005.78;5074160;28;20037;-35
2022/05/05 00:26:06;;;;;;;7.90;5.60;;;;;;;11.41;68.47;102000.34;5073683;28;20028;-35
2022/05/05 00:28:31;;;;;;;5.55;4.68;;;;;;;11.45;68.45;102004.31;5074099;28;20381;-35
2022/05/05 00:30:56;;;;;;;7.13;5.20;;;;;;;11.34;68.70;101991.41;5074162;28;20116;-35
2022/05/05 00:33:22;;;;;;;7.97;5.60;;;;;;;11.41;68.46;102008.47;5073895;28;20082;-35
2022/05/05 00:35:47;;;;;;;6.60;5.10;;;;;;;11.31;68.37;102008.91;5074422;28;20679;-35
2022/05/05 00:38:12;;;;;;;7.70;5.10;;;;;;;11.26;68.67;101999.72;5073434;28;20106;-35
2022/05/05 00:40:41;;;;;;;6.77;5.23;;;;;;;11.12;69.28;101992.63;5073194;28;20034;-35
2022/05/05 00:43:07;;;;;;;7.07;5.35;;;;;;;11.12;69.75;101992.63;5073548;28;20028;-35
2022/05/05 00:45:32;;;;;;;7.22;5.32;;;;;;;11.16;69.64;101985.78;5073881;28;20029;-35
2022/05/05 00:48:05;;;;;;;7.43;5.60;;;;;;;11.09;69.65;101992.03;5073562;28;20050;-35
2022/05/05 00:50:33;;;;;;;6.95;4.97;;;;;;;10.98;70.50;101984.53;5073652;28;20065;-35
2022/05/05 00:52:59;;;;;;;8.32;5.97;;;;;;;10.91;70.12;101980.94;5073058;28;20392;-35
2022/05/05 00:55:24;;;;;;;7.93;5.50;;;;;;;11.02;70.09;101982.22;5073752;28;20028;-35
2022/05/05 00:57:49;;;;;;;7.95;5.32;;;;;;;10.94;70.75;101996.78;5073713;28;20103;-35
2022/05/05 01:00:15;;;;;;;7.90;5.80;;;;;;;10.89;70.83;101987.63;5073403;28;20024;-35
2022/05/05 01:02:40;;;;;;;7.53;5.60;;;;;;;10.81;70.65;101991.34;5073264;28;20596;-35
2022/05/05 01:05:06;;;;;;;6.17;5.27;;;;;;;10.79;71.34;101988.84;5073327;28;20159;-35
2022/05/05 01:07:33;;;;;;;6.90;5.68;;;;;;;10.75;71.04;101989.47;5072025;28;20404;-35
2022/05/05 01:09:59;;;;;;;6.60;5.88;;;;;;;10.72;71.64;101998.81;5073106;28;20425;-35
2022/05/05 01:12:29;;;;;;;5.95;5.10;;;;;;;10.69;71.33;101996.53;5073504;28;20155;-35
2022/05/05 01:14:55;;;;;;;8.63;5.75;;;;;;;10.55;72.52;101997.50;5073575;28;20028;-35
2022/05/05 01:17:21;;;;;;;;;;;;;;;10.74;69.61;102001.31;5074377;28;20028;-35
2022/05/05 01:19:46;;;;;;;8.52;5.50;;;;;;;10.51;72.11;101999.78;5073023;28;19912;-35
2022/05/05 01:22:12;;;;;;;13.25;6.43;;;;;;;10.52;72.56;101998.75;5074033;28;20059;-35
2022/05/05 01:30:06;;;;;;;7.55;5.18;;;;;;;10.37;73.61;101989.94;5073579;28;20044;-35
2022/05/05 01:32:32;;;;;;;7.35;6.13;;;;;;;10.27;73.60;101994.91;5073535;28;20073;-35
2022/05/05 01:34:58;;;;;;;7.32;5.80;;;;;;;10.25;73.96;101999.69;5072958;28;20025;-35
2022/05/05 01:37:23;;;;;;;8.15;6.45;;;;;;;10.32;73.50;101997.84;5072995;28;20370;-35
2022/05/05 01:39:49;;;;;;;10.40;6.83;;;;;;;10.24;73.53;101998.81;5073102;28;20162;-35
2022/05/05 01:42:14;;;;;;;7.13;6.00;;;;;;;10.11;73.61;101987.09;5072920;28;20020;-35
2022/05/05 01:44:39;;;;;;;8.27;6.77;;;;;;;10.12;74.91;101991.47;5072595;28;20029;-35
2022/05/05 01:47:05;;;;;;;6.53;5.57;;;;;;;10.18;74.56;101998.78;5072889;28;20037;-35
2022/05/05 01:49:30;;;;;;;7.90;5.28;;;;;;;10.25;74.04;101996.97;5072870;28;20036;-35
2022/05/05 01:51:55;;;;;;;8.60;6.40;;;;;;;10.13;74.67;101996.66;5074104;28;20160;-35
2022/05/05 01:54:21;;;;;;;8.03;5.80;;;;;;;10.14;74.33;102000.19;5076627;28;20314;-35
2022/05/05 01:56:46;;;;;;;6.75;5.80;;;;;;;10.05;74.84;102002.22;5076882;28;20021;-35
2022/05/05 01:59:11;;;;;;;7.30;6.13;;;;;;;10.02;75.35;102002.63;5076653;28;20029;-35
2022/05/05 02:01:37;;;;;;;6.77;5.30;;;;;;;9.97;75.03;101999.69;5076783;28;20511;-35
2022/05/05 02:04:02;;;;;;;7.23;5.77;;;;;;;9.88;75.49;101984.69;5076719;28;20028;-35
2022/05/05 02:06:27;;;;;;;7.40;5.53;;;;;;;10.00;75.77;101999.28;5076699;28;20054;-35
2022/05/05 02:08:53;;;;;;;6.43;5.50;;;;;;;9.97;75.84;101994.28;5076641;28;20020;-35
2022/05/05 02:11:18;;;;;;;8.90;6.23;;;;;;;9.88;75.67;101996.31;5077137;28;20132;-35
2022/05/05 02:13:43;;;;;;;8.15;5.70;;;;;;;9.86;76.45;102001.09;5076164;28;20029;-35
2022/05/05 02:16:09;;;;;;;8.90;6.23;;;;;;;9.85;76.02;102001.28;5076482;28;20036;-35
2022/05/05 02:18:34;;;;;;;7.97;5.80;;;;;;;9.78;76.16;102003.94;5074815;28;20060;-35
2022/05/05 02:21:00;;;;;;;7.20;5.60;;;;;;;9.77;75.97;102004.97;5076536;28;20109;-35
2022/05/05 02:23:25;;;;;;;5.67;4.97;;;;;;;9.81;76.51;102000.84;5075989;28;20751;-35
2022/05/05 02:25:50;;;;;;;6.93;5.53;;;;;;;9.77;76.13;102007.69;5076392;28;20040;-35
2022/05/05 02:28:16;;;;;;;8.10;5.40;;;;;;;9.67;76.53;102015.31;5076257;28;20029;-35
2022/05/05 02:30:41;;;;;;;8.33;5.93;;;;;;;9.68;76.37;102015.09;5076247;28;20115;-35
2022/05/05 02:33:06;;;;;;;10.17;5.90;;;;;;;9.60;77.18;102017.09;5076466;28;20099;-35
2022/05/05 02:35:32;;;;;;;7.67;6.23;;;;;;;9.57;77.27;102015.63;5076760;28;20100;-35
2022/05/05 02:40:41;;;;;;;10.55;6.95;;;;;;;9.40;78.05;102015.06;5076351;28;20458;-35
2022/05/05 02:43:07;;;;;;;8.40;6.77;;;;;;;9.32;78.00;101998.16;5075865;28;20063;-34
2022/05/05 02:45:32;;;;;;;8.07;6.50;;;;;;;9.26;77.97;102003.31;5076219;28;20376;-35
2022/05/05 02:47:58;;;;;;;8.87;6.83;;;;;;;9.42;77.92;102009.47;5075049;28;20037;-35
2022/05/05 02:50:24;;;;;;;7.47;6.72;;;;;;;9.39;78.43;102013.41;5076619;28;20032;-35
2022/05/05 02:52:49;;;;;;;11.07;6.80;;;;;;;9.39;77.83;102018.81;5076516;28;20047;-35
2022/05/05 02:55:15;;;;;;;8.63;6.93;;;;;;;9.29;78.74;102021.00;5075762;28;20033;-35
2022/05/05 02:57:40;;;;;;;9.40;6.80;;;;;;;9.27;79.07;102018.50;5075939;28;20100;-35
2022/05/05 03:00:10;;;;;;;9.23;6.27;;;;;;;9.25;78.83;102019.72;5076376;28;20031;-34
2022/05/05 03:02:36;;;;;;;8.40;7.10;;;;;;;9.17;79.30;102003.63;5075797;28;20282;-35
2022/05/05 03:05:01;;;;;;;7.63;6.57;;;;;;;9.25;78.99;102017.84;5075308;28;20028;-35
2022/05/05 03:07:27;;;;;;;9.00;7.07;;;;;;;9.19;78.94;102015.94;5075791;28;20056;-35
2022/05/05 03:09:52;;;;;;;9.27;6.83;;;;;;;9.15;79.21;102006.53;5075491;28;20453;-35
2022/05/05 03:12:17;;;;;;;7.27;6.20;;;;;;;9.29;79.32;102012.91;5075442;28;20082;-35
2022/05/05 03:14:46;;;;;;;7.50;6.70;;;;;;;9.29;79.43;102018.31;5075420;28;20024;-34
2022/05/05 03:17:12;;;;;;;7.55;6.43;;;;;;;9.20;79.11;102001.41;5074844;28;20406;-35
2022/05/05 03:19:37;;;;;;;7.72;6.50;;;;;;;9.33;78.38;102024.16;5075375;28;20127;-35
2022/05/05 03:22:03;;;;;;;7.60;6.50;;;;;;;9.26;79.30;102024.06;5075168;28;20048;-35
2022/05/05 03:24:29;;;;;;;11.38;6.78;;;;;;;9.24;79.72;102023.44;5074871;28;20453;-35
2022/05/05 03:26:54;;;;;;;10.20;7.37;;;;;;;9.19;79.30;102023.19;5075469;28;20024;-35
2022/05/05 03:29:20;;;;;;;7.80;6.27;;;;;;;9.08;79.55;102020.97;5075109;28;20336;-35
2022/05/05 03:31:45;;;;;;;8.35;6.60;;;;;;;9.02;80.36;102018.03;5075248;28;20483;-35
2022/05/05 03:34:10;;;;;;;9.03;7.57;;;;;;;8.98;80.55;102032.94;5075021;28;20033;-35
2022/05/05 03:36:36;;;;;;;9.10;7.27;;;;;;;8.94;80.15;102030.81;5075747;28;20021;-35
2022/05/05 03:39:01;;;;;;;9.00;6.70;;;;;;;8.93;81.31;102031.84;5074920;28;20030;-35
2022/05/05 03:41:26;;;;;;;7.60;6.80;;;;;;;8.94;80.73;102025.44;5075265;28;20031;-35
2022/05/05 03:43:52;;;;;;;9.10;7.30;;;;;;;8.95;80.72;102030.63;5075091;28;20508;-35
2022/05/05 03:46:18;;;;;;;8.67;7.07;;;;;;;8.93;81.12;102012.94;5075030;28;20076;-35
2022/05/05 03:48:43;;;;;;;9.65;6.80;;;;;;;8.96;81.88;102018.81;5075446;28;20274;-34
2022/05/05 03:51:08;;;;;;;8.57;6.93;;;;;;;9.00;81.50;102028.19;5074652;28;20036;-35
2022/05/05 03:53:33;;;;;;;8.17;6.73;;;;;;;9.02;81.26;102023.41;5075167;28;20074;-35
2022/05/05 03:55:59;;;;;;;10.63;7.07;;;;;;;8.99;81.33;102023.81;5074921;28;20532;-35
2022/05/05 03:58:28;;;;;;;10.13;7.10;;;;;;;9.06;81.36;102029.28;5074403;28;20020;-35
2022/05/05 04:00:53;;;;;;;8.00;6.75;;;;;;;9.08;81.31;102032.63;5075122;28;20074;-35
2022/05/05 04:03:31;;;;;;;11.35;7.00;;;;;;;9.05;81.20;102033.00;5074119;28;20477;-35
2022/05/05 04:06:00;;;;;;;8.25;6.63;;;;;;;9.08;81.69;102037.19;5074313;28;20036;-36
2022/05/05 04:08:26;;;;;;;8.80;7.20;;;;;;;9.04;81.80;102050.25;5074253;28;20028;-35
2022/05/05 04:10:51;;;;;;;9.60;6.95;;;;;;;9.11;81.00;102053.00;5075003;28;20093;-34
2022/05/05 04:13:18;;;;;;;7.70;6.90;;;;;;;9.14;81.39;102044.53;5074615;28;20107;-35
2022/05/05 04:15:43;;;;;;;9.10;6.53;;;;;;;9.03;82.09;102037.78;5074130;28;20028;-35
2022/05/05 04:18:09;;;;;;;11.65;7.75;;;;;;;9.09;81.36;102055.91;5074092;28;20024;-35
2022/05/05 04:20:34;;;;;;;9.33;7.47;;;;;;;9.22;81.71;102055.16;5074357;28;20048;-35
2022/05/05 04:22:59;;;;;;;11.07;6.43;;;;;;;9.21;81.54;102048.13;5073922;28;20094;-35
2022/05/05 04:25:25;;;;;;;11.30;7.23;;;;;;;9.24;81.58;102047.75;5073981;28;20036;-34
2022/05/05 04:27:50;;;;;;;10.77;7.17;;;;;;;9.24;81.35;102058.53;5073601;28;20033;-34
2022/05/05 04:30:16;;;;;;;7.60;6.80;;;;;;;9.33;81.43;102056.56;5074143;28;20494;-34
2022/05/05 04:32:43;;;;;;;9.32;6.53;;;;;;;9.29;81.91;102072.28;5074107;28;20350;-34
2022/05/05 04:35:09;;;;;;;9.18;7.28;;;;;;;9.25;81.07;102062.91;5074060;28;20380;-34
2022/05/05 04:37:34;;;;;;;;;;;;;;;9.43;79.55;102067.84;5074703;28;20429;-34
2022/05/05 04:40:00;;;;;;;10.65;7.00;;;;;;;9.25;81.88;102071.81;5073351;28;19955;-34
2022/05/05 04:42:25;;;;;;;7.90;6.33;;;;;;;9.32;82.03;102068.34;5074199;28;20179;-34
2022/05/05 04:44:51;;;;;;;7.95;6.70;;;;;;;9.26;81.81;102065.41;5074094;28;20056;-35
2022/05/05 04:47:17;;;;;;;8.52;6.93;;;;;;;9.27;81.54;102063.53;5074646;28;20051;-35
2022/05/05 04:49:42;;;;;;;8.73;7.63;;;;;;;8.98;83.08;102081.53;5073200;28;20036;-35
2022/05/05 04:52:07;;;;;;;9.25;7.25;;;;;;;8.82;83.93;102068.25;5073304;28;20111;-35
2022/05/05 04:54:33;;;;;;;8.37;7.47;;;;;;;8.92;83.87;102071.47;5073898;28;20064;-35
2022/05/05 04:56:58;;;;;;;8.80;7.70;;;;;;;9.03;83.54;102081.78;5073716;28;20442;-35
2022/05/05 04:59:23;;;;;;;11.17;7.57;;;;;;;9.06;84.00;102071.63;5073605;28;20500;-35
2022/05/05 05:01:49;;;;;;;11.00;8.30;;;;;;;9.07;83.99;102078.69;5073398;28;20107;-34
2022/05/05 05:04:14;;;;;;;9.37;7.90;;;;;;;9.06;84.17;102079.72;5072961;28;20107;-35
2022/05/05 05:06:39;;;;;;;9.90;7.73;;;;;;;9.07;83.92;102086.78;5074098;28;20028;-35
2022/05/05 05:09:04;;;;;;;8.43;7.50;;;;;;;8.99;84.18;102085.88;5073213;28;20127;-34
2022/05/05 05:11:30;;;;;;;9.53;7.87;;;;;;;9.00;83.71;102084.84;5073292;28;20017;-35
2022/05/05 05:13:55;;;;;;;9.97;7.60;;;;;;;8.95;84.38;102089.97;5073518;28;20134;-35
2022/05/05 05:16:21;;;;;;;8.90;7.83;;;;;;;9.05;84.49;102097.78;5072164;28;20036;-34
2022/05/05 05:18:47;;;;;;;10.40;7.70;;;;;;;9.21;83.98;102091.28;5073142;28;20039;-35
2022/05/05 05:21:12;;;;;;;10.07;7.55;;;;;;;9.36;83.65;102092.06;5072954;28;20053;-35
2022/05/05 05:23:38;;;;;;;9.90;8.13;;;;;;;9.44;83.97;102097.34;5073813;28;20027;-35
2022/05/05 05:26:03;;;;;;;9.47;7.47;;;;;;;9.58;83.57;102092.91;5073508;28;20028;-35
2022/05/05 05:28:28;;;;;;;9.33;7.70;;;;;;;9.69;82.73;102102.34;5072674;28;20278;-35
2022/05/05 05:30:54;;;;;;;9.93;7.83;;;;;;;9.79;82.77;102105.56;5073228;28;20089;-34
2022/05/05 05:33:19;;;;;;;12.50;8.27;;;;;;;9.85;83.46;102101.22;5072900;28;20039;-34
2022/05/05 05:35:45;;;;;;;14.25;8.20;;;;;;;9.89;82.79;102097.94;5073515;28;20031;-35
2022/05/05 05:38:12;;;;;;;10.45;8.23;;;;;;;10.02;82.14;102108.88;5072627;28;20033;-35
2022/05/05 05:40:37;;;;;;;8.68;7.55;;;;;;;10.07;81.94;102111.81;5073042;28;20024;-34
2022/05/05 05:43:03;;;;;;;10.43;8.02;;;;;;;10.13;81.82;102106.66;5072121;28;20044;-35
2022/05/05 05:45:29;;;;;;;10.23;9.18;;;;;;;10.25;81.05;102111.34;5073359;28;20047;-35
2022/05/05 05:47:54;;;;;;;10.32;8.27;;;;;;;10.36;81.15;102112.66;5072844;28;20380;-35
2022/05/05 05:50:19;;;;;;;11.90;8.50;;;;;;;10.56;81.30;102112.78;5073056;28;20029;-35
2022/05/05 05:52:45;;;;;;;11.55;9.02;;;;;;;10.78;79.73;102094.56;5072706;28;20049;-35
2022/05/05 05:55:11;;;;;;;13.80;8.45;;;;;;;11.08;78.92;102106.75;5072873;28;20025;-34
2022/05/05 05:57:36;;;;;;;10.82;8.63;;;;;;;11.29;78.03;102108.47;5072957;28;20470;-34
2022/05/05 06:00:02;;;;;;;11.53;8.73;;;;;;;11.43;77.02;102108.50;5072949;28;20354;-34
2022/05/05 06:05:12;;;;;;;12.73;8.40;;;;;;;11.77;76.50;102091.25;5072672;28;19916;-34
2022/05/05 06:07:37;;;;;;;;;;;;;;;12.05;76.79;102107.28;5073878;28;20086;-34
2022/05/05 06:10:03;;;;;;;11.43;8.97;;;;;;;12.00;73.95;102086.22;5073108;28;19908;-34
2022/05/05 06:12:30;;;;;;;11.73;9.50;;;;;;;12.32;73.01;102113.53;5073023;28;20262;-34
2022/05/05 06:14:55;;;;;;;12.85;9.90;;;;;;;12.40;70.85;102101.63;5072452;28;20028;-34
2022/05/05 06:17:20;;;;;;;13.63;9.77;;;;;;;12.57;70.09;102111.78;5072114;28;20114;-34
2022/05/05 06:19:46;;;;;;;13.50;10.60;;;;;;;12.66;69.94;102114.28;5072501;28;20028;-34
2022/05/05 06:22:11;;;;;;;13.68;10.43;;;;;;;12.79;70.57;102109.63;5073414;28;20136;-34
2022/05/05 06:24:37;;;;;;;14.02;10.48;;;;;;;12.88;70.06;102102.94;5072487;28;20059;-34
2022/05/05 06:27:02;;;;;;;14.20;11.20;;;;;;;12.97;68.92;102114.34;5072255;28;20491;-34
2022/05/05 06:29:30;;;;;;;20.20;12.48;;;;;;;12.96;69.91;102101.81;5072378;28;20033;-34
2022/05/05 06:31:55;;;;;;;17.10;11.85;;;;;;;13.06;68.70;102117.66;5072990;28;20373;-34
2022/05/05 06:34:20;;;;;;;17.92;12.45;;;;;;;13.07;67.92;102112.00;5072490;28;20028;-34
2022/05/05 06:36:46;;;;;;;15.10;11.77;;;;;;;13.06;68.93;102115.78;5071455;28;20024;-35
2022/05/05 06:39:11;;;;;;;14.57;11.50;;;;;;;13.05;67.93;102095.09;5073589;28;20321;-34
2022/05/05 06:41:36;;;;;;;16.80;12.13;;;;;;;13.21;68.40;102120.09;5076084;28;20361;-34
2022/05/05 06:44:02;;;;;;;17.93;12.13;;;;;;;13.17;67.71;102113.41;5075894;28;20032;-34
2022/05/05 06:46:27;;;;;;;17.30;11.27;;;;;;;13.30;67.50;102122.34;5076384;28;20035;-34
2022/05/05 06:48:53;;;;;;;16.08;10.80;;;;;;;13.35;68.74;102116.28;5076462;28;20033;-34
2022/05/05 06:51:18;;;;;;;15.80;11.55;;;;;;;13.46;67.89;102131.03;5076469;28;20033;-34
2022/05/05 06:53:44;;;;;;;13.83;10.67;;;;;;;13.54;66.67;102126.19;5075587;28;20025;-34
2022/05/05 06:56:09;;;;;;;15.80;11.80;;;;;;;13.55;67.64;102124.28;5076463;28;20330;-34
2022/05/05 06:58:34;;;;;;;15.43;11.43;;;;;;;13.60;66.87;102122.56;5075659;28;20055;-34
2022/05/05 07:03:43;;;;;;;17.00;12.13;;;;;;;13.73;67.00;102131.69;5076190;28;20262;-34
2022/05/05 07:06:10;;;;;;;16.58;12.73;;;;;;;13.80;66.53;102137.91;5075728;28;20024;-34
2022/05/05 07:11:20;;;;;;;19.45;13.65;;;;;;;13.83;67.01;102148.34;5075879;28;20079;-37
2022/05/05 07:13:45;;;;;;;18.90;13.35;;;;;;;13.88;66.23;102145.81;5075524;28;20036;-34
2022/05/05 07:16:11;;;;;;;17.92;14.13;;;;;;;13.90;66.49;102155.38;5075774;28;20453;-34
2022/05/05 07:18:37;;;;;;;16.85;12.63;;;;;;;13.94;66.09;102155.78;5075440;28;20036;-34
2022/05/05 07:21:02;;;;;;;18.20;12.63;;;;;;;13.88;66.40;102148.53;5076055;28;20061;-34
2022/05/05 07:23:28;;;;;;;17.15;13.13;;;;;;;13.98;66.72;102170.59;5075357;28;20040;-34
2022/05/05 07:25:53;;;;;;;18.77;13.90;;;;;;;14.04;67.15;102169.72;5075389;28;20040;-34
2022/05/05 07:28:18;;;;;;;16.63;13.63;;;;;;;14.08;67.24;102168.22;5075045;28;20346;-34
2022/05/05 07:30:44;;;;;;;19.42;14.35;;;;;;;14.06;66.32;102166.78;5075821;28;20032;-34
2022/05/05 07:33:10;;;;;;;;;;;;;;;14.11;66.72;102175.94;5075295;28;20033;-35
2022/05/05 07:35:38;;;;;;;21.47;16.87;;;;;;;14.02;67.84;102177.28;5074843;28;19912;-35
2022/05/05 07:38:03;;;;;;;21.10;17.30;;;;;;;14.06;68.75;102181.22;5075330;28;20678;-34
2022/05/05 07:40:28;;;;;;;17.23;14.63;;;;;;;14.02;67.45;102162.84;5075773;28;20123;-34
2022/05/05 07:42:54;;;;;;;18.47;13.77;;;;;;;14.12;67.13;102169.44;5075488;28;20029;-35
2022/05/05 07:45:19;;;;;;;24.25;17.98;;;;;;;14.21;68.89;102171.91;5075242;28;20294;-34
2022/05/05 07:47:45;;;;;;;23.70;19.25;;;;;;;14.18;68.77;102173.16;5074827;28;20064;-35
2022/05/05 07:50:11;;;;;;;22.92;17.92;;;;;;;14.28;67.88;102178.94;5074583;28;20032;-34
2022/05/05 07:52:36;;;;;;;22.48;16.88;;;;;;;14.38;67.35;102181.16;5074793;28;20017;-34
2022/05/05 07:55:02;;;;;;;24.58;19.58;;;;;;;14.44;67.72;102188.41;5074837;28;20385;-34
2022/05/05 07:57:27;;;;;;;25.13;19.67;;;;;;;14.55;67.68;102186.88;5075017;28;20044;-34
2022/05/05 07:59:53;;;;;;;24.45;18.42;;;;;;;14.61;66.89;102181.38;5074338;28;20064;-34
2022/05/05 08:02:19;;;;;;;22.77;18.47;;;;;;;14.66;67.01;102176.06;5074955;28;20032;-35
2022/05/05 08:04:44;;;;;;;19.75;17.45;;;;;;;14.77;66.94;102190.00;5074506;28;20335;-34
2022/05/05 08:07:11;;;;;;;29.00;20.02;;;;;;;14.77;66.54;102182.66;5074446;28;20033;-35
2022/05/05 08:09:37;;;;;;;21.15;15.85;;;;;;;14.88;66.91;102191.97;5074404;28;20109;-34
2022/05/05 08:12:04;;;;;;;20.58;18.38;;;;;;;14.86;67.84;102191.38;5074449;28;20033;-35
2022/05/05 08:14:30;;;;;;;21.45;17.98;;;;;;;14.85;67.55;102201.44;5075132;28;20357;-34
2022/05/05 08:16:57;;;;;;;;;;;;;;;15.06;67.50;102202.84;5074842;28;20029;-35
2022/05/05 08:19:22;;;;;;;22.40;18.17;;;;;;;15.08;66.38;102200.75;5074936;28;19916;-35
2022/05/05 08:21:49;;;;;;;21.90;18.77;;;;;;;15.09;66.34;102201.59;5074522;28;20044;-35
2022/05/05 08:29:42;;;;;;;22.27;18.55;;;;;;;15.36;66.69;102202.06;5073976;28;20118;-35
2022/05/05 08:32:07;;;;;;;;;;;;;;;15.54;66.44;102210.22;5074843;28;20029;-35
2022/05/05 08:34:33;;;;;;;19.27;17.23;;;;;;;15.38;65.86;102217.13;5073902;28;19912;-35
2022/05/05 08:36:58;;;;;;;;;;;;;;;15.57;66.07;102209.75;5074354;28;20524;-34
2022/05/05 08:39:24;;;;;;;24.02;17.55;;;;;;;15.34;66.03;102213.19;5073584;28;19917;-34
2022/05/05 08:41:49;;;;;;;22.20;18.77;;;;;;;15.31;66.46;102202.75;5074168;28;20024;-34
2022/05/05 08:44:15;;;;;;;;;;;;;;;15.61;65.91;102218.28;5074493;28;20032;-34
2022/05/05 08:46:40;;;;;;;23.17;19.25;;;;;;;15.48;65.52;102215.75;5074554;28;19915;-35
2022/05/05 08:49:07;;;;;;;23.98;19.08;;;;;;;15.52;65.60;102217.81;5073751;28;20051;-34
2022/05/05 08:51:43;;;;;;;23.08;20.15;;;;;;;15.34;65.35;102206.94;5074223;28;20035;-35
2022/05/05 08:54:11;;;;;;;;;;;;;;;15.66;65.63;102216.59;5073602;28;20421;-35
2022/05/05 08:56:37;;;;;;;24.60;19.48;;;;;;;15.59;66.02;102218.53;5074095;28;19970;-34
2022/05/05 08:59:03;;;;;;;;;;;;;;;15.83;65.84;102222.19;5073976;28;20029;-35
2022/05/05 09:01:36;;;;;;;24.13;20.48;;;;;;;15.84;66.59;102220.31;5072780;28;19962;-35
2022/05/05 09:04:03;;;;;;;25.25;19.92;;;;;;;15.82;65.20;102222.44;5073991;28;20028;-42
2022/05/05 09:06:59;;;;;;;24.50;20.52;;;;;;;15.95;65.44;102220.31;5073818;28;20024;-35
2022/05/05 09:09:33;;;;;;;23.05;20.10;;;;;;;15.92;64.17;102223.53;5051612;28;20037;-34
2022/05/05 09:12:18;;;;;;;26.40;20.73;;;;;;;16.00;64.42;102236.00;5051301;28;20150;-35
2022/05/05 09:14:50;;;;;;;23.45;19.17;;;;;;;16.15;63.08;102230.09;5051461;28;20037;-35
2022/05/05 09:17:19;;;;;;;25.83;20.38;;;;;;;16.12;64.09;102223.22;5051210;28;20045;-34
2022/05/05 09:19:47;;;;;;;23.75;20.48;;;;;;;16.14;63.33;102232.00;5050864;28;20041;-35
2022/05/05 09:22:16;;;;;;;23.75;19.88;;;;;;;16.36;63.62;102226.00;5051179;28;20052;-35
2022/05/05 09:24:44;;;;;;;24.55;21.88;;;;;;;16.35;62.60;102233.34;5050829;28;20045;-35
2022/05/05 09:27:33;;;;;;;23.45;20.92;;;;;;;16.50;63.48;102224.69;5051019;28;20493;-35
2022/05/05 09:30:01;;;;;;;23.58;21.00;;;;;;;16.44;62.29;102229.19;5051011;28;20440;-35
2022/05/05 09:32:32;;;;;;;26.38;20.85;;;;;;;16.46;61.24;102223.50;5051343;28;20049;-35
2022/05/05 09:35:07;;;;;;;22.65;20.02;;;;;;;16.55;61.55;102227.53;5051007;28;20028;-34
2022/05/05 09:37:33;;;;;;;23.30;20.33;;;;;;;16.60;60.69;102224.09;5051540;28;20466;-34
2022/05/05 09:39:59;;;;;;;;;;;;;;;16.72;61.32;102233.97;5051058;28;20314;-34
2022/05/05 09:42:41;;;;;;;20.13;17.20;;;;;;;16.51;60.85;102214.59;5051415;28;19998;-34
2022/05/05 09:45:23;;;;;;;23.20;19.00;;;;;;;16.67;60.99;102220.16;5055492;28;20043;-34
2022/05/05 09:47:49;;;;;;;23.05;20.02;;;;;;;16.80;60.13;102235.53;5073925;28;20439;-34
2022/05/05 09:50:16;;;;;;;22.75;20.25;;;;;;;16.63;60.10;102240.81;5072937;28;20044;-34
2022/05/05 09:58:13;;;;;;;25.52;20.95;;;;;;;16.90;59.63;102241.22;5072967;28;20503;-35
2022/05/05 10:00:45;;;;;;;24.67;20.35;;;;;;;16.81;59.99;102225.41;5072785;28;20032;-35
2022/05/05 10:06:03;;;;;;;23.35;20.83;;;;;;;16.84;58.91;102244.91;5073351;28;20128;-34
2022/05/05 10:08:49;;;;;;;25.20;21.77;;;;;;;16.81;60.82;102253.56;5072425;28;20021;-35
2022/05/05 10:11:15;;;;;;;23.27;19.95;;;;;;;16.93;60.90;102240.75;5073472;28;20119;-35
2022/05/05 10:13:41;;;;;;;;;;;;;;;17.20;60.34;102245.66;5074663;28;20046;-35
2022/05/05 10:16:08;;;;;;;21.35;18.35;;;;;;;17.12;59.53;102244.13;5076589;28;20343;-35
2022/05/05 10:18:37;;;;;;;25.13;19.42;;;;;;;17.26;58.48;102239.22;5076486;28;20395;-35
2022/05/05 10:21:05;;;;;;;23.05;19.95;;;;;;;17.43;59.29;102242.88;5076389;28;20538;-35
2022/05/05 10:23:41;;;;;;;23.67;20.50;;;;;;;17.43;57.48;102231.13;5076441;28;20031;-35
2022/05/05 10:26:08;;;;;;;22.80;20.48;;;;;;;17.54;58.62;102235.69;5076684;28;20078;-35
2022/05/05 10:28:39;;;;;;;22.80;20.48;;;;;;;17.58;57.07;102233.31;5076640;28;20107;-35
2022/05/05 10:31:09;;;;;;;22.02;19.83;;;;;;;17.72;56.51;102237.41;5075986;28;20024;-34
2022/05/05 10:34:00;;;;;;;23.67;21.25;;;;;;;17.79;56.57;102231.81;5076267;28;20119;-34
2022/05/05 10:36:27;;;;;;;22.08;19.77;;;;;;;17.80;55.34;102233.47;5075967;28;20456;-34
2022/05/05 10:38:52;;;;;;;22.75;20.38;;;;;;;17.86;55.34;102233.34;5076078;28;20111;-35
2022/05/05 10:41:30;;;;;;;;;;;;;;;18.17;56.59;102233.84;5076721;28;20116;-35
2022/05/05 10:44:23;;;;;;;21.73;19.52;;;;;;;18.20;56.16;102239.69;5075077;28;19924;-35
2022/05/05 10:46:51;;;;;;;22.88;20.48;;;;;;;18.17;55.12;102239.34;5076142;28;20125;-35
2022/05/05 10:52:11;;;;;;;22.52;19.15;;;;;;;18.41;55.15;102235.34;5076106;28;20389;-35
2022/05/05 10:54:39;;;;;;;21.17;18.85;;;;;;;18.52;56.64;102241.81;5075645;28;20033;-35
2022/05/05 10:57:23;;;;;;;21.35;19.00;;;;;;;18.71;55.33;102248.72;5074967;28;20098;-35
2022/05/05 11:00:11;;;;;;;21.92;19.63;;;;;;;18.65;54.70;102229.69;5075949;28;20067;-35
2022/05/05 11:02:38;;;;;;;24.20;18.92;;;;;;;18.78;53.96;102229.34;5076029;28;20077;-35
2022/05/05 11:05:29;;;;;;;21.58;19.27;;;;;;;19.04;53.91;102238.75;5075776;28;20047;-35
2022/05/05 11:08:20;;;;;;;19.83;17.55;;;;;;;19.06;53.66;102236.59;5075442;28;20146;-35
2022/05/05 11:10:48;;;;;;;18.92;16.98;;;;;;;19.12;53.22;102242.97;5075339;28;20032;-35
2022/05/05 11:13:35;;;;;;;16.52;14.80;;;;;;;19.26;52.77;102230.53;5075587;28;20098;-34
2022/05/05 11:22:19;;;;;;;15.45;13.82;;;;;;;19.51;50.35;102230.00;5075912;28;20189;-34
2022/05/05 11:24:49;;;;;;;15.77;14.07;;;;;;;19.23;50.36;102231.06;5074955;28;20033;-35
2022/05/05 11:27:16;;;;;;;15.25;12.07;;;;;;;19.35;49.84;102229.00;5075426;28;20025;-35
2022/05/05 11:29:52;;;;;;;10.77;8.98;;;;;;;19.26;48.89;102220.38;5075366;28;20170;-35
2022/05/05 11:32:18;;;;;;;10.05;8.95;;;;;;;19.50;49.19;102231.09;5075424;28;20020;-35
2022/05/05 11:34:45;;;;;;;10.00;8.95;;;;;;;19.52;48.05;102235.25;5073886;28;20029;-35
2022/05/05 11:37:11;;;;;;;13.95;9.65;;;;;;;19.77;48.99;102220.16;5075189;28;20516;-35
2022/05/05 11:39:37;;;;;;;11.30;10.20;;;;;;;20.02;48.50;102220.41;5075045;28;20029;-35
2022/05/05 11:42:04;;;;;;;;;;;;;;;20.30;49.71;102235.75;5075636;28;20105;-35
2022/05/05 11:44:30;;;;;;;11.65;10.45;;;;;;;20.08;49.20;102221.28;5075015;28;19908;-35
2022/05/05 11:46:59;;;;;;;;;;;;;;;20.44;49.91;102241.59;5075405;28;20492;-35
2022/05/05 11:49:32;;;;;;;13.73;12.32;;;;;;;20.22;47.09;102232.66;5074857;28;20004;-35
2022/05/05 11:51:58;;;;;;;13.02;11.77;;;;;;;20.18;47.77;102226.84;5075040;28;20047;-35
2022/05/05 11:54:27;;;;;;;13.82;11.93;;;;;;;20.24;47.39;102224.97;5074494;28;20491;-36
2022/05/05 11:56:53;;;;;;;13.40;11.98;;;;;;;20.46;46.34;102217.44;5074811;28;20064;-35
2022/05/05 12:02:10;;;;;;;13.40;12.00;;;;;;;20.41;47.02;102216.59;5075007;28;20035;-35
2022/05/05 12:04:38;;;;;;;13.70;12.10;;;;;;;20.57;46.81;102215.63;5074559;28;20036;-36
2022/05/05 12:07:06;;;;;;;13.25;11.80;;;;;;;20.53;47.57;102215.31;5075660;28;20043;-36
2022/05/05 12:09:31;;;;;;;14.20;12.55;;;;;;;20.65;47.17;102209.63;5074432;28;20028;-36
2022/05/05 12:11:57;;;;;;;15.40;13.80;;;;;;;20.62;46.91;102209.34;5075322;28;20453;-35